Time;durP1;ratioP1;P1;durP2;ratioP2;P2;SDS_P1;SDS_P2;PMS_P1;PMS_P2;Temp;Humidity;BMP_temperature;BMP_pressure;BME280_temperature;BME280_humidity;BME280_pressure;Samples;Min_cycle;Max_cycle;Signal;HPM_P1;HPM_P2
2024/03/07 00:02:17;;;;;;;79.82;22.40;;;;;;;2.24;100.00;99427.81;5071717;28;20016;-80
2024/03/07 00:04:43;;;;;;;81.75;23.05;;;;;;;2.14;100.00;99441.13;5079909;28;20024;-83
2024/03/07 00:07:08;;;;;;;87.28;22.50;;;;;;;2.05;100.00;99426.78;5072449;28;20221;-82
2024/03/07 00:09:34;;;;;;;101.13;23.23;;;;;;;1.99;100.00;99408.59;5072455;28;20085;-81
2024/03/07 00:12:07;;;;;;;66.53;23.80;;;;;;;2.12;100.00;99427.94;5077881;28;20331;-81
2024/03/07 00:14:35;;;;;;;67.43;22.50;;;;;;;2.16;100.00;99444.50;5087075;28;20024;-81
2024/03/07 00:17:00;;;;;;;80.70;22.80;;;;;;;1.92;100.00;99418.97;5076282;28;20013;-80
2024/03/07 00:19:26;;;;;;;64.70;22.00;;;;;;;1.92;100.00;99410.97;5090713;28;20205;-82
2024/03/07 00:21:59;;;;;;;107.43;23.42;;;;;;;2.02;100.00;99444.84;5074457;28;20062;-81
2024/03/07 00:24:24;;;;;;;82.95;21.92;;;;;;;1.91;100.00;99432.44;5070564;28;20024;-82
2024/03/07 00:26:51;;;;;;;193.60;26.20;;;;;;;1.84;100.00;99421.47;5075718;28;20039;-83
2024/03/07 00:29:18;;;;;;;84.43;24.00;;;;;;;1.79;100.00;99421.03;5074993;28;20016;-82
2024/03/07 00:31:44;;;;;;;101.32;23.92;;;;;;;1.89;100.00;99432.59;5070035;28;20055;-81
2024/03/07 00:34:09;;;;;;;66.88;24.02;;;;;;;1.74;100.00;99415.25;5077621;28;20020;-82
2024/03/07 00:36:35;;;;;;;69.10;23.92;;;;;;;1.89;100.00;99437.09;5087779;28;20024;-82
2024/03/07 00:39:00;;;;;;;69.85;23.92;;;;;;;1.84;100.00;99421.47;5079686;28;20024;-81
2024/03/07 00:41:26;;;;;;;78.38;25.88;;;;;;;1.93;100.00;99417.16;5086345;28;20038;-82
2024/03/07 00:43:51;;;;;;;95.72;25.27;;;;;;;1.82;100.00;99401.25;5086508;28;20087;-83
2024/03/07 00:46:16;;;;;;;91.00;24.02;;;;;;;1.98;100.00;99439.78;5087010;28;20036;-84
2024/03/07 00:48:42;;;;;;;67.90;23.10;;;;;;;1.77;100.00;99419.47;5087140;28;20324;-82
2024/03/07 00:51:08;;;;;;;99.18;22.65;;;;;;;1.78;100.00;99431.81;5078685;28;20027;-81
2024/03/07 00:53:34;;;;;;;63.17;20.92;;;;;;;1.67;100.00;99422.06;5077168;28;20099;-82
2024/03/07 00:55:59;;;;;;;55.90;21.45;;;;;;;1.57;100.00;99414.00;5077163;28;20040;-81
2024/03/07 00:58:27;;;;;;;105.75;21.35;;;;;;;1.49;100.00;99412.00;5076504;28;20042;-81
2024/03/07 01:00:52;;;;;;;66.80;20.77;;;;;;;1.47;100.00;99411.28;5078281;28;20020;-82
2024/03/07 01:03:18;;;;;;;71.03;21.70;;;;;;;1.41;100.00;99421.63;5087315;28;20124;-81
2024/03/07 01:05:44;;;;;;;74.47;22.52;;;;;;;1.42;100.00;99415.34;5069996;28;20027;-81
2024/03/07 01:08:09;;;;;;;69.03;22.50;;;;;;;1.36;100.00;99410.50;5071616;28;20020;-80
2024/03/07 01:10:35;;;;;;;80.35;20.90;;;;;;;1.40;100.00;99422.59;5076885;22;20176;-77
2024/03/07 01:13:02;;;;;;;81.18;22.40;;;;;;;1.17;100.00;99384.56;5063523;28;20040;-76
2024/03/07 01:15:30;;;;;;;64.38;21.77;;;;;;;1.07;100.00;99384.47;5041745;28;20025;-77
2024/03/07 01:17:56;;;;;;;67.35;21.38;;;;;;;1.29;100.00;99431.50;5048758;28;20083;-76
2024/03/07 01:20:21;;;;;;;67.70;21.75;;;;;;;0.89;100.00;99370.88;5070491;28;20246;-78
2024/03/07 01:22:47;;;;;;;57.17;19.77;;;;;;;0.99;100.00;99371.78;5067622;28;20024;-78
2024/03/07 01:25:12;;;;;;;64.43;20.58;;;;;;;0.98;100.00;99378.09;5043687;28;20192;-78
2024/03/07 01:27:38;;;;;;;65.60;21.70;;;;;;;1.05;100.00;99376.63;5058915;28;20060;-78
2024/03/07 01:30:06;;;;;;;61.05;20.13;;;;;;;0.87;100.00;99362.19;5045317;28;20021;-78
2024/03/07 01:32:31;;;;;;;58.47;20.50;;;;;;;0.99;100.00;99370.94;5046317;28;20025;-78
2024/03/07 01:34:57;;;;;;;62.55;20.02;;;;;;;1.12;100.00;99400.94;5064978;28;20033;-76
2024/03/07 01:37:22;;;;;;;62.10;21.88;;;;;;;1.02;100.00;99392.88;5054111;28;20048;-78
2024/03/07 01:39:47;;;;;;;63.38;20.98;;;;;;;1.19;100.00;99406.59;5058180;28;20218;-78
2024/03/07 01:42:12;;;;;;;60.15;21.00;;;;;;;1.04;100.00;99377.59;5064874;28;20320;-78
2024/03/07 01:44:41;;;;;;;58.17;21.58;;;;;;;0.95;100.00;99370.38;5070367;28;20031;-78
2024/03/07 01:47:07;;;;;;;74.18;22.90;;;;;;;1.04;100.00;99401.56;5052751;28;20211;-78
2024/03/07 01:49:33;;;;;;;70.85;23.45;;;;;;;0.77;100.00;99353.25;5051761;28;20025;-76
2024/03/07 01:51:59;;;;;;;75.03;23.92;;;;;;;0.71;100.00;99345.75;5050949;28;20028;-78
2024/03/07 01:54:25;;;;;;;73.22;23.05;;;;;;;0.86;100.00;99377.31;5056711;28;20327;-78
2024/03/07 01:56:51;;;;;;;70.47;24.27;;;;;;;0.67;100.00;99352.34;5048889;28;20043;-78
2024/03/07 01:59:20;;;;;;;89.13;26.02;;;;;;;0.92;100.00;99385.75;5051540;28;20316;-78
2024/03/07 02:01:46;;;;;;;99.60;27.95;;;;;;;0.78;100.00;99357.59;5049020;28;20319;-78
2024/03/07 02:04:12;;;;;;;83.50;26.13;;;;;;;0.83;100.00;99366.91;5074670;28;20366;-78
2024/03/07 02:06:37;;;;;;;96.65;26.23;;;;;;;0.75;100.00;99336.56;5067880;28;20024;-78
2024/03/07 02:09:03;;;;;;;85.30;24.00;;;;;;;0.61;100.00;99327.91;5055171;28;20024;-78
2024/03/07 02:11:28;;;;;;;73.38;21.77;;;;;;;0.71;100.00;99365.28;5066698;28;20060;-78
2024/03/07 02:13:54;;;;;;;72.43;22.83;;;;;;;0.65;100.00;99357.78;5076625;28;20250;-78
2024/03/07 02:16:20;;;;;;;61.38;20.08;;;;;;;0.49;100.00;99322.75;5073800;28;20238;-78
2024/03/07 02:18:45;;;;;;;68.30;19.20;;;;;;;0.73;100.00;99381.94;5072757;28;20016;-78
2024/03/07 02:21:11;;;;;;;52.03;18.52;;;;;;;0.33;100.00;99316.00;5053081;28;20020;-78
2024/03/07 02:23:37;;;;;;;62.13;19.38;;;;;;;0.36;100.00;99325.56;5050423;28;20045;-78
2024/03/07 02:26:03;;;;;;;61.20;20.48;;;;;;;0.18;100.00;99290.66;5059140;28;20023;-78
2024/03/07 02:28:28;;;;;;;67.63;21.50;;;;;;;0.58;100.00;99362.78;5048216;28;20021;-78
2024/03/07 02:30:53;;;;;;;78.50;23.17;;;;;;;0.19;100.00;99279.91;5070702;28;20021;-78
2024/03/07 02:33:19;;;;;;;78.35;23.40;;;;;;;0.34;100.00;99324.84;5067271;28;20067;-78
2024/03/07 02:39:00;;;;;;;76.22;23.58;;;;;;;0.61;100.00;99349.19;5076503;23;20075;-57
2024/03/07 02:41:26;;;;;;;81.43;25.88;;;;;;;0.55;100.00;99371.03;5075339;28;20211;-57
2024/03/07 02:43:52;;;;;;;82.75;24.80;;;;;;;0.69;100.00;99367.22;5074507;28;20115;-56
2024/03/07 02:46:19;;;;;;;92.03;27.20;;;;;;;0.58;100.00;99353.94;5071259;28;20060;-56
2024/03/07 02:48:44;;;;;;;100.00;29.02;;;;;;;0.63;100.00;99359.75;5063985;28;20048;-57
2024/03/07 02:51:11;;;;;;;100.47;29.33;;;;;;;0.61;100.00;99359.84;5073276;28;20486;-57
2024/03/07 02:53:37;;;;;;;95.30;29.98;;;;;;;0.57;100.00;99350.41;5068596;28;20035;-56
2024/03/07 02:56:04;;;;;;;103.25;30.02;;;;;;;0.48;100.00;99356.50;5070162;28;20021;-57
2024/03/07 02:58:29;;;;;;;95.13;28.70;;;;;;;0.52;100.00;99347.28;5072830;28;20028;-57
2024/03/07 03:00:58;;;;;;;105.72;30.50;;;;;;;0.52;100.00;99351.78;5073023;28;20028;-57
2024/03/07 03:03:23;;;;;;;105.70;30.70;;;;;;;0.54;100.00;99350.66;5060166;28;20381;-57
2024/03/07 03:05:49;;;;;;;101.38;30.60;;;;;;;0.51;100.00;99342.94;5066626;28;20077;-58
2024/03/07 03:08:14;;;;;;;109.78;30.85;;;;;;;0.61;100.00;99349.19;5072554;28;20033;-57
2024/03/07 03:10:41;;;;;;;94.20;28.55;;;;;;;0.58;100.00;99354.78;5073425;28;20070;-59
2024/03/07 03:13:06;;;;;;;105.95;28.50;;;;;;;0.50;100.00;99354.56;5073727;28;20029;-57
2024/03/07 03:15:32;;;;;;;93.45;27.75;;;;;;;0.51;100.00;99345.59;5070482;28;20361;-57
2024/03/07 03:18:01;;;;;;;88.22;27.33;;;;;;;0.49;100.00;99346.69;5066313;28;20019;-56
2024/03/07 03:20:33;;;;;;;84.38;25.48;;;;;;;0.37;100.00;99352.06;5070387;28;20024;-56
2024/03/07 03:22:59;;;;;;;96.35;28.58;;;;;;;0.38;100.00;99352.91;5070947;28;20497;-56
2024/03/07 03:25:25;;;;;;;101.05;27.55;;;;;;;0.27;100.00;99352.94;5071850;28;20146;-57
2024/03/07 03:27:51;;;;;;;96.88;28.10;;;;;;;0.26;100.00;99353.91;5072712;28;20495;-57
2024/03/07 03:30:18;;;;;;;101.75;28.00;;;;;;;0.29;100.00;99345.66;5069719;28;20024;-56
2024/03/07 03:32:46;;;;;;;101.40;28.50;;;;;;;0.22;100.00;99355.97;5068971;28;20023;-59
2024/03/07 03:35:13;;;;;;;90.32;27.33;;;;;;;0.20;100.00;99350.75;5072292;28;20032;-57
2024/03/07 03:37:44;;;;;;;97.25;29.38;;;;;;;0.22;100.00;99353.31;5068507;28;20479;-57
2024/03/07 03:40:10;;;;;;;104.53;28.10;;;;;;;0.22;100.00;99350.66;5073180;28;20020;-57
2024/03/07 03:42:40;;;;;;;105.10;27.90;;;;;;;0.28;100.00;99351.97;5066975;28;20031;-56
2024/03/07 03:45:08;;;;;;;105.72;29.65;;;;;;;0.23;100.00;99352.31;5071734;28;20098;-56
2024/03/07 03:47:35;;;;;;;108.80;31.40;;;;;;;0.25;100.00;99346.91;5056026;28;20024;-57
2024/03/07 03:50:05;;;;;;;97.95;28.55;;;;;;;0.22;100.00;99351.47;5072765;28;20012;-57
2024/03/07 03:52:31;;;;;;;102.38;29.75;;;;;;;0.15;100.00;99350.28;5069292;28;20382;-57
2024/03/07 03:55:01;;;;;;;92.25;28.23;;;;;;;0.15;100.00;99344.97;5068081;28;20024;-56
2024/03/07 03:57:29;;;;;;;98.53;27.85;;;;;;;0.11;100.00;99348.00;5070534;28;20020;-57
2024/03/07 03:59:54;;;;;;;92.70;28.50;;;;;;;0.08;100.00;99342.91;5066475;28;20103;-56
2024/03/07 04:02:21;;;;;;;96.57;29.83;;;;;;;0.10;100.00;99344.47;5069954;28;20116;-56
2024/03/07 04:04:54;;;;;;;96.57;27.67;;;;;;;-0.15;100.00;99332.31;5069035;28;20336;-56
2024/03/07 04:07:19;;;;;;;78.93;23.85;;;;;;;-0.23;100.00;99338.25;5055532;28;20122;-56
2024/03/07 04:09:45;;;;;;;77.88;21.92;;;;;;;-0.31;100.00;99335.34;5069986;28;20159;-56
2024/03/07 04:12:12;;;;;;;73.10;22.83;;;;;;;-0.21;100.00;99338.09;5073004;28;20465;-56
2024/03/07 04:14:40;;;;;;;73.13;23.67;;;;;;;-0.19;100.00;99341.50;5064122;28;20103;-57
2024/03/07 04:17:08;;;;;;;86.03;25.05;;;;;;;-0.27;100.00;99339.44;5072916;28;20399;-58
2024/03/07 04:19:38;;;;;;;93.07;26.08;;;;;;;-0.32;100.00;99351.41;5071627;28;20052;-56
2024/03/07 04:22:04;;;;;;;84.18;26.30;;;;;;;-0.34;100.00;99346.25;5067917;28;20488;-57
2024/03/07 04:24:32;;;;;;;93.00;28.02;;;;;;;-0.34;100.00;99340.03;5064644;28;20021;-56
2024/03/07 04:27:03;;;;;;;74.18;20.13;;;;;;;-0.37;100.00;99330.50;5065508;28;20110;-56
2024/03/07 04:29:30;;;;;;;89.60;25.83;;;;;;;-0.35;100.00;99336.56;5076537;28;20032;-56
2024/03/07 04:31:55;;;;;;;86.13;26.20;;;;;;;-0.46;100.00;99328.59;5073614;28;20104;-56
2024/03/07 04:34:20;;;;;;;95.10;27.52;;;;;;;-0.52;100.00;99331.72;5064386;28;20099;-56
2024/03/07 04:36:46;;;;;;;86.70;26.02;;;;;;;-0.55;100.00;99335.47;5066189;28;20032;-56
2024/03/07 04:39:22;;;;;;;104.38;30.48;;;;;;;-0.54;100.00;99331.84;5066790;28;20039;-56
2024/03/07 04:41:48;;;;;;;118.25;32.75;;;;;;;-0.42;100.00;99330.00;5061291;28;20082;-56
2024/03/07 04:44:14;;;;;;;121.63;33.33;;;;;;;-0.37;100.00;99325.19;5064568;28;20067;-56
2024/03/07 04:46:42;;;;;;;125.00;31.88;;;;;;;-0.39;100.00;99323.63;5074092;28;20036;-56
2024/03/07 04:49:09;;;;;;;123.22;32.28;;;;;;;-0.38;100.00;99339.44;5071415;28;20086;-56
2024/03/07 04:51:34;;;;;;;114.15;31.90;;;;;;;-0.37;100.00;99332.31;5067277;28;20352;-56
2024/03/07 04:53:59;;;;;;;117.20;31.02;;;;;;;-0.38;100.00;99323.50;5066852;28;20031;-56
2024/03/07 04:56:25;;;;;;;98.10;29.35;;;;;;;-0.37;100.00;99333.16;5072640;28;20027;-56
2024/03/07 04:58:50;;;;;;;109.20;30.35;;;;;;;-0.40;100.00;99338.72;5070710;28;20024;-56
2024/03/07 05:01:16;;;;;;;114.97;30.75;;;;;;;-0.41;100.00;99336.19;5069462;28;20028;-56
2024/03/07 05:03:43;;;;;;;111.60;29.90;;;;;;;-0.47;100.00;99335.72;5065694;28;20044;-56
2024/03/07 05:06:08;;;;;;;109.53;30.42;;;;;;;-0.52;100.00;99334.38;5062652;28;20094;-56
2024/03/07 05:08:34;;;;;;;101.38;28.40;;;;;;;-0.53;100.00;99333.50;5071126;28;20021;-56
2024/03/07 05:10:59;;;;;;;113.95;30.25;;;;;;;-0.58;100.00;99340.16;5069103;28;20105;-56
2024/03/07 05:13:25;;;;;;;115.45;30.95;;;;;;;-0.58;100.00;99334.84;5063637;28;20380;-56
2024/03/07 05:15:51;;;;;;;120.70;33.25;;;;;;;-0.62;100.00;99334.25;5057040;28;20131;-56
2024/03/07 05:18:16;;;;;;;115.60;32.70;;;;;;;-0.63;100.00;99337.00;5066977;28;20066;-56
2024/03/07 05:20:42;;;;;;;116.55;32.92;;;;;;;-0.67;100.00;99325.78;5067912;28;20050;-56
2024/03/07 05:23:10;;;;;;;114.10;32.72;;;;;;;-0.68;100.00;99327.59;5065280;28;20020;-56
2024/03/07 05:25:35;;;;;;;117.40;33.60;;;;;;;-0.71;100.00;99333.16;5051659;28;20388;-56
2024/03/07 05:28:02;;;;;;;124.03;31.58;;;;;;;-0.75;100.00;99337.00;5070708;28;20025;-58
2024/03/07 05:30:28;;;;;;;108.65;30.85;;;;;;;-0.74;100.00;99330.72;5053497;28;20395;-57
2024/03/07 05:32:53;;;;;;;120.07;31.77;;;;;;;-0.79;100.00;99324.91;5072550;28;20020;-56
2024/03/07 05:35:21;;;;;;;106.53;29.95;;;;;;;-0.77;100.00;99330.13;5065747;28;20104;-56
2024/03/07 05:37:47;;;;;;;104.68;29.52;;;;;;;-0.76;100.00;99321.16;5070809;28;20475;-56
2024/03/07 05:40:13;;;;;;;104.60;29.27;;;;;;;-0.64;100.00;99324.69;5063040;28;20078;-56
2024/03/07 05:42:38;;;;;;;100.78;29.23;;;;;;;-0.53;100.00;99322.03;5065662;28;20013;-56
2024/03/07 05:45:07;;;;;;;102.55;29.15;;;;;;;-0.46;100.00;99325.91;5069298;28;20028;-56
2024/03/07 05:47:33;;;;;;;101.93;29.77;;;;;;;-0.42;100.00;99322.03;5071904;28;20492;-56
2024/03/07 05:49:58;;;;;;;105.18;29.27;;;;;;;-0.39;100.00;99323.63;5071235;28;20036;-56
2024/03/07 05:52:23;;;;;;;108.45;29.77;;;;;;;-0.39;100.00;99318.28;5070412;28;20098;-56
2024/03/07 05:54:49;;;;;;;106.10;30.08;;;;;;;-0.39;100.00;99324.47;5068446;28;20020;-57
2024/03/07 05:57:14;;;;;;;96.13;28.33;;;;;;;-0.44;100.00;99313.38;5074456;28;20031;-56
2024/03/07 05:59:40;;;;;;;107.35;29.42;;;;;;;-0.40;100.00;99321.94;5070426;28;20067;-56
2024/03/07 06:02:05;;;;;;;105.72;29.65;;;;;;;-0.38;100.00;99323.50;5048749;28;20033;-56
2024/03/07 06:04:32;;;;;;;108.50;29.60;;;;;;;-0.38;100.00;99318.19;5066071;28;20478;-61
2024/03/07 06:06:57;;;;;;;102.70;28.88;;;;;;;-0.35;100.00;99320.59;5075573;28;20032;-56
2024/03/07 06:09:23;;;;;;;92.78;28.80;;;;;;;-0.31;100.00;99315.91;5065372;28;20040;-56
2024/03/07 06:11:49;;;;;;;101.05;27.30;;;;;;;-0.24;100.00;99317.09;5064388;28;20100;-56
2024/03/07 06:14:16;;;;;;;94.22;28.80;;;;;;;-0.16;100.00;99319.13;5067490;28;20455;-56
2024/03/07 06:16:41;;;;;;;80.07;28.20;;;;;;;-0.03;100.00;99326.03;5072506;28;20028;-58
2024/03/07 06:19:08;;;;;;;89.40;27.00;;;;;;;0.13;100.00;99322.97;5070384;28;20036;-56
2024/03/07 06:21:34;;;;;;;98.85;30.20;;;;;;;0.20;100.00;99321.50;5071848;28;20108;-56
2024/03/07 06:24:01;;;;;;;83.53;26.50;;;;;;;0.25;100.00;99322.94;5072671;28;20104;-56
2024/03/07 06:27:15;;;;;;;88.35;28.60;;;;;;;0.72;100.00;99315.50;5073721;28;20524;-56
2024/03/07 06:29:23;;;;;;;78.90;27.48;;;;;;;1.19;100.00;99308.00;5067105;28;20054;-56
2024/03/07 06:31:50;;;;;;;79.40;28.63;;;;;;;1.58;100.00;99306.38;5070925;28;20025;-58
2024/03/07 06:34:15;;;;;;;70.53;27.67;;;;;;;2.04;100.00;99302.28;5068936;28;20051;-56
2024/03/07 06:36:40;;;;;;;64.35;25.13;;;;;;;2.48;100.00;99291.28;5072623;28;20021;-57
2024/03/07 06:39:06;;;;;;;67.75;24.90;;;;;;;2.88;100.00;99282.25;5066984;28;20453;-57
2024/03/07 06:41:34;;;;;;;52.42;23.15;;;;;;;3.45;100.00;99269.75;5062221;28;20037;-56
2024/03/07 06:44:00;;;;;;;50.83;21.63;;;;;;;3.79;100.00;99269.19;5063039;28;20032;-59
2024/03/07 06:46:26;;;;;;;48.75;19.23;;;;;;;4.43;100.00;99270.91;5063881;28;20031;-57
2024/03/07 06:48:51;;;;;;;41.38;18.25;;;;;;;4.31;100.00;99261.41;5062462;28;20052;-56
2024/03/07 06:51:18;;;;;;;40.85;19.95;;;;;;;5.10;100.00;99257.88;5060504;28;20031;-57
2024/03/07 06:53:46;;;;;;;34.60;17.27;;;;;;;4.95;100.00;99259.44;5061816;28;20074;-58
2024/03/07 06:56:13;;;;;;;36.05;17.70;;;;;;;4.28;100.00;99264.38;5063921;28;20055;-56
2024/03/07 06:58:39;;;;;;;36.53;17.08;;;;;;;3.43;100.00;99261.03;5061821;28;20511;-54
2024/03/07 07:01:10;;;;;;;34.25;16.60;;;;;;;3.12;100.00;99269.28;5066321;28;20087;-55
2024/03/07 07:03:39;;;;;;;34.10;16.25;;;;;;;2.89;100.00;99273.28;5067016;28;20032;-54
2024/03/07 07:06:06;;;;;;;38.78;18.40;;;;;;;2.84;100.00;99274.53;5072980;28;20416;-56
2024/03/07 07:08:32;;;;;;;45.05;19.77;;;;;;;2.51;100.00;99274.97;5071361;28;20036;-57
2024/03/07 07:10:58;;;;;;;36.65;18.35;;;;;;;2.51;100.00;99274.97;5108447;22;20369;-60
2024/03/07 07:13:23;;;;;;;40.88;19.10;;;;;;;2.47;100.00;99281.59;5076217;28;20383;-62
2024/03/07 07:15:49;;;;;;;44.13;20.98;;;;;;;2.44;100.00;99282.72;5065431;28;20040;-62
2024/03/07 07:18:15;;;;;;;43.95;19.65;;;;;;;2.53;100.00;99273.84;5071924;28;20021;-62
2024/03/07 07:20:41;;;;;;;48.08;19.25;;;;;;;2.95;100.00;99276.19;5067663;28;20752;-62
2024/03/07 07:23:06;;;;;;;41.83;18.55;;;;;;;3.50;100.00;99278.19;5071232;28;20020;-62
2024/03/07 07:25:32;;;;;;;39.45;17.88;;;;;;;3.88;100.00;99266.47;5064958;28;20071;-62
2024/03/07 07:27:58;;;;;;;35.60;16.60;;;;;;;4.52;100.00;99261.09;5066000;28;20047;-62
2024/03/07 07:30:29;;;;;;;34.80;16.50;;;;;;;5.53;100.00;99249.91;5057878;28;20076;-62
2024/03/07 07:32:54;;;;;;;31.38;15.27;;;;;;;5.63;100.00;99254.19;5063672;28;20024;-61
2024/03/07 07:35:20;;;;;;;34.13;17.42;;;;;;;6.43;100.00;99248.41;5062611;28;20546;-61
2024/03/07 07:37:48;;;;;;;36.25;17.25;;;;;;;6.78;100.00;99241.84;5063321;28;20419;-61
2024/03/07 07:40:18;;;;;;;35.67;15.77;;;;;;;6.52;100.00;99239.34;5062021;28;20051;-61
2024/03/07 07:42:47;;;;;;;29.58;14.65;;;;;;;6.99;100.00;99227.06;5062676;28;20023;-63
2024/03/07 07:45:14;;;;;;;30.23;15.35;;;;;;;7.05;100.00;99239.84;5059261;28;20029;-63
2024/03/07 07:47:44;;;;;;;27.88;14.32;;;;;;;6.58;100.00;99235.16;5058173;28;20024;-62
2024/03/07 07:50:14;;;;;;;29.75;16.25;;;;;;;5.87;100.00;99231.13;5057645;28;20025;-63
2024/03/07 07:52:58;;;;;;;33.17;15.55;;;;;;;5.58;100.00;99234.16;5052269;28;20025;-63
2024/03/07 07:55:24;;;;;;;28.77;15.18;;;;;;;5.68;100.00;99234.88;5073221;28;20075;-62
2024/03/07 07:58:00;;;;;;;33.65;15.07;;;;;;;5.54;100.00;99228.28;5061956;28;20073;-61
2024/03/07 08:00:31;;;;;;;28.98;15.07;;;;;;;5.49;100.00;99234.13;5054072;28;20511;-62
2024/03/07 08:03:00;;;;;;;24.55;13.00;;;;;;;5.25;100.00;99229.47;5046309;28;20033;-63
2024/03/07 08:05:32;;;;;;;29.25;14.70;;;;;;;5.16;100.00;99227.75;5064791;28;20063;-62
2024/03/07 08:08:00;;;;;;;30.20;14.45;;;;;;;5.10;100.00;99230.22;5062261;28;20036;-62
2024/03/07 08:10:30;;;;;;;24.13;13.18;;;;;;;5.07;100.00;99230.53;5060299;28;20040;-62
2024/03/07 08:12:56;;;;;;;23.48;12.73;;;;;;;5.14;100.00;99235.13;5062573;28;20502;-62
2024/03/07 08:15:21;;;;;;;25.98;13.18;;;;;;;5.52;100.00;99230.28;5048651;28;20026;-62
2024/03/07 08:17:48;;;;;;;25.50;13.25;;;;;;;5.55;100.00;99229.13;5062610;28;20078;-62
2024/03/07 08:20:17;;;;;;;22.60;12.57;;;;;;;5.81;100.00;99227.22;5054390;28;20539;-63
2024/03/07 08:22:44;;;;;;;26.08;13.20;;;;;;;5.80;100.00;99217.50;5060990;28;20037;-62
2024/03/07 08:25:12;;;;;;;27.33;14.13;;;;;;;5.69;100.00;99210.56;5067523;28;20025;-61
2024/03/07 08:27:38;;;;;;;25.58;12.95;;;;;;;5.99;100.00;99221.75;5049799;28;20033;-63
2024/03/07 08:30:12;;;;;;;30.15;14.50;;;;;;;5.80;100.00;99216.66;5058685;28;20106;-62
2024/03/07 08:32:42;;;;;;;25.45;13.80;;;;;;;5.77;100.00;99217.81;5055814;28;20064;-62
2024/03/07 08:35:11;;;;;;;26.20;13.88;;;;;;;5.70;100.00;99212.25;5055009;28;20052;-62
2024/03/07 08:37:40;;;;;;;30.58;15.55;;;;;;;5.65;100.00;99206.50;5063090;28;20040;-62
2024/03/07 08:40:07;;;;;;;;;;;;;;;5.65;100.00;99222.63;5055541;28;20040;-62
2024/03/07 08:42:36;;;;;;;34.55;16.45;;;;;;;6.03;100.00;99212.38;5053576;28;19917;-61
2024/03/07 08:45:04;;;;;;;27.38;15.00;;;;;;;6.21;100.00;99203.34;5063141;28;20083;-62
2024/03/07 08:47:33;;;;;;;26.98;14.30;;;;;;;6.56;100.00;99207.59;5060009;28;20055;-63
2024/03/07 08:50:00;;;;;;;22.95;12.63;;;;;;;7.20;100.00;99211.22;5054716;28;20025;-61
2024/03/07 08:52:27;;;;;;;24.33;13.40;;;;;;;7.42;100.00;99206.13;5064048;28;20081;-61
2024/03/07 08:54:53;;;;;;;24.15;13.20;;;;;;;7.46;100.00;99199.38;5056921;28;20139;-63
2024/03/07 08:57:19;;;;;;;26.25;13.88;;;;;;;7.82;100.00;99205.09;5062524;28;20021;-64
2024/03/07 08:59:46;;;;;;;25.42;13.05;;;;;;;7.97;100.00;99199.81;5056214;28;20039;-62
2024/03/07 09:02:11;;;;;;;27.45;13.88;;;;;;;8.58;100.00;99205.34;5053488;28;21098;-63
2024/03/07 09:04:38;;;;;;;24.70;13.45;;;;;;;9.23;100.00;99203.06;5051977;28;20060;-62
2024/03/07 09:07:05;;;;;;;28.63;13.27;;;;;;;9.88;100.00;99197.72;5056085;28;20502;-62
2024/03/07 09:09:30;;;;;;;23.70;13.73;;;;;;;9.94;100.00;99198.84;5060546;28;20032;-63
2024/03/07 09:11:57;;;;;;;24.55;12.63;;;;;;;9.92;100.00;99192.78;5065561;28;20054;-63
2024/03/07 09:14:23;;;;;;;23.48;12.73;;;;;;;9.94;100.00;99196.13;5055681;28;20107;-63
2024/03/07 09:16:49;;;;;;;23.38;13.70;;;;;;;10.19;100.00;99191.22;5061049;28;20444;-62
2024/03/07 09:19:19;;;;;;;26.17;14.13;;;;;;;9.64;100.00;99189.91;5054198;28;20507;-64
2024/03/07 09:21:46;;;;;;;29.13;14.63;;;;;;;9.97;100.00;99184.94;5056660;28;20107;-63
2024/03/07 09:24:51;;;;;;;25.15;13.80;;;;;;;9.87;100.00;99187.94;5061880;28;20025;-63
2024/03/07 09:27:19;;;;;;;24.40;12.52;;;;;;;10.60;100.00;99187.91;5050869;28;20076;-62
2024/03/07 09:29:47;;;;;;;22.80;13.35;;;;;;;11.77;88.38;99189.16;5051738;28;20020;-62
2024/03/07 09:32:13;;;;;;;21.42;13.27;;;;;;;13.51;78.20;99166.59;5049822;28;20036;-62
2024/03/07 09:34:38;;;;;;;26.13;13.25;;;;;;;16.60;66.65;99175.19;5058731;28;20048;-63
2024/03/07 09:37:06;;;;;;;25.95;14.18;;;;;;;19.43;55.38;99150.56;5054207;28;20059;-62
2024/03/07 09:39:34;;;;;;;23.00;13.98;;;;;;;18.99;51.28;99169.66;5053383;28;20032;-63
2024/03/07 09:42:01;;;;;;;23.17;14.73;;;;;;;19.23;48.58;99159.34;5050523;28;20079;-62
2024/03/07 09:44:28;;;;;;;21.02;13.90;;;;;;;19.36;49.27;99169.13;5054340;28;20029;-63
2024/03/07 09:46:59;;;;;;;25.45;14.32;;;;;;;20.55;46.01;99166.81;5050951;28;20112;-62
2024/03/07 09:49:28;;;;;;;24.33;15.30;;;;;;;20.40;45.98;99166.59;5051420;28;20056;-62
2024/03/07 09:51:56;;;;;;;21.67;14.98;;;;;;;20.83;43.09;99162.09;5063917;28;20017;-61
2024/03/07 09:54:24;;;;;;;22.43;14.23;;;;;;;21.38;46.11;99164.50;5056550;28;20515;-62
2024/03/07 09:56:53;;;;;;;23.42;15.02;;;;;;;20.89;45.61;99158.31;5050606;28;20070;-61
2024/03/07 09:59:20;;;;;;;21.60;14.45;;;;;;;21.39;44.17;99155.13;5053458;28;20016;-62
2024/03/07 10:01:47;;;;;;;19.35;14.23;;;;;;;21.91;42.33;99149.91;5059883;28;20101;-62
2024/03/07 10:04:14;;;;;;;21.23;14.68;;;;;;;20.95;43.73;99149.00;5048090;28;20025;-62
2024/03/07 10:06:41;;;;;;;21.65;15.57;;;;;;;20.57;42.95;99140.72;5047914;28;20381;-62
2024/03/07 10:09:13;;;;;;;22.33;15.18;;;;;;;21.51;42.82;99143.06;5041056;28;20080;-62
2024/03/07 10:11:38;;;;;;;21.23;14.85;;;;;;;21.83;40.83;99140.22;5045345;28;20056;-62
2024/03/07 10:14:04;;;;;;;24.02;14.48;;;;;;;22.16;41.12;99140.88;5048127;28;20024;-62
2024/03/07 10:16:31;;;;;;;24.52;15.27;;;;;;;21.15;42.13;99140.91;5055174;28;20052;-62
2024/03/07 10:18:57;;;;;;;22.55;14.65;;;;;;;22.30;40.71;99139.31;5059346;28;20563;-62
2024/03/07 10:21:24;;;;;;;23.40;14.35;;;;;;;21.71;41.32;99137.69;5055343;28;20120;-61
2024/03/07 10:23:51;;;;;;;21.02;14.80;;;;;;;21.44;41.53;99127.63;5052207;28;20376;-63
2024/03/07 10:26:17;;;;;;;22.17;15.00;;;;;;;21.14;42.62;99139.25;5058894;28;20024;-61
2024/03/07 10:28:43;;;;;;;23.15;14.40;;;;;;;19.27;43.32;99132.22;5059149;28;20031;-61
2024/03/07 10:31:11;;;;;;;22.77;14.80;;;;;;;19.90;43.84;99138.31;5060967;28;20115;-61
2024/03/07 10:33:39;;;;;;;26.48;15.23;;;;;;;20.44;43.23;99145.78;5057198;28;20052;-61
2024/03/07 10:36:09;;;;;;;24.40;15.55;;;;;;;18.03;44.67;99144.88;5062369;28;20044;-61
2024/03/07 10:38:36;;;;;;;33.90;15.38;;;;;;;19.12;44.45;99138.31;5065106;28;20516;-61
2024/03/07 10:41:04;;;;;;;25.25;15.00;;;;;;;19.53;43.46;99130.66;5059887;28;20021;-61
2024/03/07 10:43:29;;;;;;;22.02;14.02;;;;;;;20.89;42.01;99137.13;5067299;28;20103;-61
2024/03/07 10:45:56;;;;;;;22.20;14.48;;;;;;;21.96;41.74;99125.94;5055178;28;20078;-62
2024/03/07 10:48:29;;;;;;;23.88;14.43;;;;;;;23.93;39.68;99121.78;5062627;28;20025;-62
2024/03/07 10:51:18;;;;;;;21.58;14.88;;;;;;;21.69;39.91;99117.00;5054905;28;20025;-61
2024/03/07 10:53:59;;;;;;;22.10;14.90;;;;;;;21.04;41.64;99122.69;5066142;28;20617;-62
2024/03/07 10:56:24;;;;;;;22.10;14.55;;;;;;;19.78;42.52;99130.22;5061659;28;20425;-62
2024/03/07 10:59:07;;;;;;;24.60;14.90;;;;;;;19.35;44.20;99120.81;5063907;28;20021;-61
2024/03/07 11:01:39;;;;;;;24.58;15.70;;;;;;;17.86;46.04;99125.63;5055610;28;20036;-61
2024/03/07 11:04:05;;;;;;;20.48;13.65;;;;;;;18.36;48.65;99122.22;5062507;28;20349;-61
2024/03/07 11:06:33;;;;;;;21.38;13.82;;;;;;;21.21;44.58;99106.81;5058610;28;20025;-62
2024/03/07 11:09:03;;;;;;;20.02;13.00;;;;;;;22.53;42.68;99102.97;5070032;28;20020;-61
2024/03/07 11:11:29;;;;;;;19.25;13.32;;;;;;;22.93;41.26;99098.53;5066592;28;20059;-61
2024/03/07 11:13:58;;;;;;;21.42;13.48;;;;;;;25.13;39.91;99094.69;5065949;28;20028;-60
2024/03/07 11:16:25;;;;;;;17.77;13.15;;;;;;;24.71;38.54;99092.56;5064881;28;20025;-62
2024/03/07 11:19:19;;;;;;;20.95;14.82;;;;;;;21.77;38.62;99102.72;5054208;28;20032;-59